createdAt,value
2023-04-10T00:00:30.339Z,355.81
2023-04-10T00:01:30.314Z,359.73
2023-04-10T00:02:30.541Z,365.36
2023-04-10T00:03:30.449Z,370.33
2023-04-10T00:04:30.355Z,364.54
2023-04-10T00:05:30.276Z,365.77
2023-04-10T00:06:30.261Z,361.72
2023-04-10T00:07:30.253Z,356.59
2023-04-10T00:08:30.227Z,374.14
2023-04-10T00:09:30.231Z,376.73
2023-04-10T00:10:30.219Z,378.91
2023-04-10T00:11:30.198Z,386.92
2023-04-10T00:12:30.179Z,385.79
2023-04-10T00:13:30.165Z,384.45
2023-04-10T00:14:30.158Z,378.91
2023-04-10T00:15:30.174Z,371.17
2023-04-10T00:16:30.152Z,370.75
2023-04-10T00:17:30.169Z,364.95
2023-04-10T00:18:30.111Z,360.13
2023-04-10T00:19:30.085Z,335.72
2023-04-10T00:20:30.081Z,326.01
2023-04-10T00:21:30.067Z,313.80
2023-04-10T00:22:30.039Z,305.87
2023-04-10T00:23:30.069Z,298.88
2023-04-10T00:24:30.016Z,294.57
2023-04-10T00:25:30.014Z,277.56
2023-04-10T00:26:29.996Z,254.05
2023-04-10T00:27:30.006Z,258.47
2023-04-10T00:28:29.976Z,269.33
2023-04-10T00:29:29.970Z,282.36
2023-04-10T00:30:29.954Z,290.39
2023-04-10T00:31:29.951Z,298.06
2023-04-10T00:32:29.965Z,301.92
2023-04-10T00:33:29.942Z,292.99
2023-04-10T00:34:29.908Z,290.13
2023-04-10T00:35:29.910Z,290.13
2023-04-10T00:36:29.869Z,299.70
2023-04-10T00:37:29.865Z,293.51
2023-04-10T00:38:29.866Z,285.07
2023-04-10T00:39:29.855Z,290.13
2023-04-10T00:40:29.823Z,275.69
2023-04-10T00:41:29.844Z,281.63
2023-04-10T00:42:29.830Z,290.90
2023-04-10T00:43:29.822Z,297.52
2023-04-10T00:44:29.801Z,282.36
2023-04-10T00:45:29.758Z,268.01
2023-04-10T00:46:29.883Z,263.26
2023-04-10T00:47:29.750Z,255.04
2023-04-10T00:48:29.734Z,252.09
2023-04-10T00:49:29.713Z,251.32
2023-04-10T00:50:29.687Z,253.26
2023-04-10T00:51:29.689Z,251.90
2023-04-10T00:52:29.659Z,254.25
2023-04-10T00:53:29.661Z,259.70
2023-04-10T00:54:29.644Z,269.33
2023-04-10T00:55:29.625Z,274.76
2023-04-10T00:56:29.614Z,278.75
2023-04-10T00:57:29.600Z,277.33
2023-04-10T00:58:29.597Z,278.51
2023-04-10T00:59:29.587Z,269.77
2023-04-10T01:00:29.573Z,255.04
2023-04-10T01:01:29.632Z,220.02
2023-04-10T01:02:29.738Z,190.19
2023-04-10T01:03:29.680Z,176.30
2023-04-10T01:04:29.686Z,163.15
2023-04-10T01:05:29.523Z,155.37
2023-04-10T01:06:29.484Z,152.94
2023-04-10T01:07:29.516Z,161.09
2023-04-10T01:08:29.472Z,171.21
2023-04-10T01:09:29.470Z,178.38
2023-04-10T01:10:29.429Z,184.52
2023-04-10T01:11:29.448Z,187.47
2023-04-10T01:12:29.554Z,194.49
2023-04-10T01:13:29.420Z,199.36
2023-04-10T01:14:29.406Z,204.34
2023-04-10T01:15:29.380Z,209.05
2023-04-10T01:16:29.418Z,211.34
2023-04-10T01:17:29.384Z,207.72
2023-04-10T01:18:29.325Z,197.55
2023-04-10T01:19:29.336Z,182.09
2023-04-10T01:20:29.302Z,170.69
2023-04-10T01:21:29.286Z,163.47
2023-04-10T01:22:29.285Z,164.44
2023-04-10T01:23:29.292Z,168.27
2023-04-10T01:24:29.264Z,171.04
2023-04-10T01:25:29.244Z,170.86
2023-04-10T01:26:29.251Z,172.64
2023-04-10T01:27:29.221Z,182.89
2023-04-10T01:28:29.201Z,192.21
2023-04-10T01:29:29.227Z,200.58
2023-04-10T01:30:29.188Z,207.06
2023-04-10T01:31:29.177Z,215.67
2023-04-10T01:32:29.181Z,225.33
2023-04-10T01:33:29.172Z,227.68
2023-04-10T01:34:29.155Z,228.64
2023-04-10T01:35:29.194Z,232.05
2023-04-10T01:36:29.096Z,232.54
2023-04-10T01:37:29.092Z,236.07
2023-04-10T01:38:29.070Z,233.71
2023-04-10T01:39:29.119Z,229.60
2023-04-10T01:40:29.080Z,225.49
2023-04-10T01:41:29.050Z,219.14
2023-04-10T01:42:29.031Z,209.72
2023-04-10T01:43:29.041Z,195.31
2023-04-10T01:44:29.040Z,184.71
2023-04-10T01:45:29.056Z,184.31
2023-04-10T01:46:29.007Z,178.76
2023-04-10T01:47:29.049Z,170.51
2023-04-10T01:48:28.979Z,164.60
2023-04-10T01:49:28.950Z,156.99
2023-04-10T01:50:29.041Z,153.23
2023-04-10T01:51:28.944Z,151.00
2023-04-10T01:52:28.918Z,151.00
2023-04-10T01:53:28.910Z,152.94
2023-04-10T01:54:28.876Z,152.94
2023-04-10T01:55:28.876Z,155.37
2023-04-10T01:56:28.875Z,159.40
2023-04-10T01:57:28.837Z,163.31
2023-04-10T01:58:28.830Z,165.59
2023-04-10T01:59:28.808Z,165.92
2023-04-10T02:00:28.878Z,165.26
2023-04-10T02:01:30.438Z,164.93
2023-04-10T02:02:28.939Z,167.42
2023-04-10T02:03:29.072Z,166.25
2023-04-10T02:04:28.894Z,165.59
2023-04-10T02:05:28.756Z,164.60
2023-04-10T02:06:28.749Z,163.79
2023-04-10T02:07:28.713Z,161.72
2023-04-10T02:08:28.691Z,160.78
2023-04-10T02:09:28.702Z,157.14
2023-04-10T02:10:28.693Z,154.36
2023-04-10T02:11:28.670Z,149.77
2023-04-10T02:12:28.687Z,146.22
2023-04-10T02:13:28.628Z,141.61
2023-04-10T02:14:28.657Z,137.40
2023-04-10T02:15:28.646Z,132.15
2023-04-10T02:16:28.685Z,126.81
2023-04-10T02:17:28.626Z,123.79
2023-04-10T02:18:28.561Z,120.30
2023-04-10T02:19:28.608Z,118.92
2023-04-10T02:20:28.566Z,118.16
2023-04-10T02:21:28.598Z,117.74
2023-04-10T02:22:28.510Z,118.83
2023-04-10T02:23:28.547Z,122.78
2023-04-10T02:24:28.492Z,125.57
2023-04-10T02:25:28.472Z,127.20
2023-04-10T02:26:28.464Z,127.79
2023-04-10T02:27:28.510Z,127.59
2023-04-10T02:28:28.430Z,128.88
2023-04-10T02:29:28.452Z,129.18
2023-04-10T02:30:28.416Z,128.08
2023-04-10T02:31:28.441Z,127.39
2023-04-10T02:32:28.409Z,128.38
2023-04-10T02:33:28.369Z,128.98
2023-04-10T02:34:28.377Z,129.18
2023-04-10T02:35:28.355Z,130.80
2023-04-10T02:36:28.346Z,132.47
2023-04-10T02:37:28.337Z,132.79
2023-04-10T02:38:28.300Z,132.26
2023-04-10T02:39:28.299Z,131.84
2023-04-10T02:40:28.287Z,132.26
2023-04-10T02:41:28.264Z,132.89
2023-04-10T02:42:28.272Z,132.57
2023-04-10T02:43:28.258Z,131.11
2023-04-10T02:44:28.242Z,129.58
2023-04-10T02:45:28.202Z,128.98
2023-04-10T02:46:28.259Z,129.98
2023-04-10T02:47:28.285Z,127.79
2023-04-10T02:48:28.224Z,127.30
2023-04-10T02:49:28.175Z,125.38
2023-04-10T02:50:28.164Z,125.47
2023-04-10T02:51:28.137Z,121.00
2023-04-10T02:52:28.159Z,120.12
2023-04-10T02:53:28.130Z,119.52
2023-04-10T02:54:28.091Z,122.15
2023-04-10T02:55:28.097Z,120.47
2023-04-10T02:56:28.070Z,120.21
2023-04-10T02:57:28.062Z,120.21
2023-04-10T02:58:28.070Z,120.04
2023-04-10T02:59:28.082Z,120.04
2023-04-10T03:00:28.019Z,120.91
2023-04-10T03:01:28.028Z,121.08
2023-04-10T03:02:28.165Z,122.42
2023-04-10T03:03:28.053Z,124.53
2023-04-10T03:04:28.034Z,126.43
2023-04-10T03:05:27.950Z,127.69
2023-04-10T03:06:27.961Z,128.58
2023-04-10T03:07:27.942Z,129.48
2023-04-10T03:08:27.926Z,124.25
2023-04-10T03:09:27.914Z,122.78
2023-04-10T03:10:27.910Z,121.88
2023-04-10T03:11:27.873Z,119.09
2023-04-10T03:12:27.878Z,114.10
2023-04-10T03:13:27.869Z,109.88
2023-04-10T03:14:27.838Z,107.19
2023-04-10T03:15:27.820Z,106.09
2023-04-10T03:16:27.836Z,105.02
2023-04-10T03:17:27.819Z,102.69
2023-04-10T03:18:27.781Z,100.57
2023-04-10T03:19:27.756Z,99.73
2023-04-10T03:20:27.770Z,100.03
2023-04-10T03:21:27.758Z,98.61
2023-04-10T03:22:27.734Z,98.37
2023-04-10T03:23:27.744Z,96.38
2023-04-10T03:24:27.730Z,96.38
2023-04-10T03:25:27.709Z,94.94
2023-04-10T03:26:27.700Z,94.68
2023-04-10T03:27:27.694Z,94.21
2023-04-10T03:28:27.671Z,92.94
2023-04-10T03:29:27.643Z,93.36
2023-04-10T03:30:27.622Z,93.78
2023-04-10T03:31:27.657Z,94.85
2023-04-10T03:32:27.606Z,95.51
2023-04-10T03:33:27.621Z,94.42
2023-04-10T03:34:27.569Z,95.29
2023-04-10T03:35:27.579Z,94.19
2023-04-10T03:36:27.591Z,95.77
2023-04-10T03:37:27.525Z,97.11
2023-04-10T03:38:27.539Z,97.91
2023-04-10T03:39:27.510Z,98.26
2023-04-10T03:40:27.494Z,98.26
2023-04-10T03:41:34.014Z,99.55
2023-04-10T03:42:27.464Z,101.19
2023-04-10T03:43:27.466Z,101.37
2023-04-10T03:44:27.440Z,102.75
2023-04-10T03:45:27.415Z,104.36
2023-04-10T03:46:27.457Z,101.25
2023-04-10T03:47:27.454Z,101.62
2023-04-10T03:48:27.394Z,99.61
2023-04-10T03:49:27.380Z,98.49
2023-04-10T03:50:27.359Z,95.71
2023-04-10T03:51:27.369Z,95.95
2023-04-10T03:52:27.334Z,94.64
2023-04-10T03:53:27.317Z,94.21
2023-04-10T03:54:27.342Z,94.10
2023-04-10T03:55:27.279Z,93.99
2023-04-10T03:56:27.311Z,93.99
2023-04-10T03:57:27.261Z,93.89
2023-04-10T03:58:27.277Z,93.36
2023-04-10T03:59:37.935Z,93.36
2023-04-10T04:00:27.241Z,92.22
2023-04-10T04:01:27.274Z,91.21
2023-04-10T04:02:27.343Z,93.47
2023-04-10T04:03:27.348Z,94.85
2023-04-10T04:04:27.329Z,94.74
2023-04-10T04:05:27.195Z,93.26
2023-04-10T04:06:27.152Z,94.53
2023-04-10T04:07:27.159Z,95.84
2023-04-10T04:08:27.123Z,94.62
2023-04-10T04:09:27.106Z,96.88
2023-04-10T04:10:27.098Z,99.31
2023-04-10T04:11:27.064Z,102.06
2023-04-10T04:12:27.058Z,102.94
2023-04-10T04:13:27.088Z,104.23
2023-04-10T04:14:27.053Z,106.36
2023-04-10T04:15:27.031Z,107.12
2023-04-10T04:16:27.025Z,108.31
2023-04-10T04:17:27.052Z,109.88
2023-04-10T04:18:26.989Z,111.80
2023-04-10T04:19:26.979Z,112.56
2023-04-10T04:20:26.983Z,115.61
2023-04-10T04:21:27.002Z,116.58
2023-04-10T04:22:26.943Z,118.67
2023-04-10T04:23:26.968Z,121.08
2023-04-10T04:24:26.916Z,125.19
2023-04-10T04:25:26.906Z,127.59
2023-04-10T04:26:26.900Z,132.05
2023-04-10T04:27:26.886Z,133.11
2023-04-10T04:28:28.377Z,133.43
2023-04-10T04:29:26.874Z,133.11
2023-04-10T04:30:26.849Z,132.89
2023-04-10T04:31:26.828Z,134.72
2023-04-10T04:32:26.839Z,134.94
2023-04-10T04:33:26.825Z,133.53
2023-04-10T04:34:26.827Z,135.27
2023-04-10T04:35:26.778Z,134.83
2023-04-10T04:36:26.762Z,136.94
2023-04-10T04:37:26.768Z,138.43
2023-04-10T04:38:26.766Z,137.97
2023-04-10T04:39:26.751Z,135.27
2023-04-10T04:40:26.751Z,137.97
2023-04-10T04:41:26.723Z,141.85
2023-04-10T04:42:26.689Z,144.57
2023-04-10T04:43:26.706Z,148.84
2023-04-10T04:44:26.674Z,152.10
2023-04-10T04:45:26.646Z,155.66
2023-04-10T04:46:26.657Z,156.69
2023-04-10T04:47:26.658Z,159.70
2023-04-10T04:48:26.615Z,159.85
2023-04-10T04:49:26.600Z,162.04
2023-04-10T04:50:26.581Z,165.09
2023-04-10T04:51:26.605Z,162.51
2023-04-10T04:52:26.575Z,161.88
2023-04-10T04:53:26.552Z,161.56
2023-04-10T04:54:26.563Z,161.09
2023-04-10T04:55:26.527Z,157.88
2023-04-10T04:56:26.526Z,156.40
2023-04-10T04:57:26.506Z,152.80
2023-04-10T04:58:26.497Z,152.10
2023-04-10T04:59:26.487Z,151.55
2023-04-10T05:00:26.506Z,152.52
2023-04-10T05:01:26.495Z,151.14
2023-04-10T05:02:26.629Z,149.91
2023-04-10T05:03:26.583Z,147.12
2023-04-10T05:04:26.496Z,145.07
2023-04-10T05:05:26.404Z,142.95
2023-04-10T05:06:26.405Z,143.20
2023-04-10T05:07:26.372Z,141.37
2023-04-10T05:08:26.403Z,142.95
2023-04-10T05:09:26.355Z,144.06
2023-04-10T05:10:26.343Z,144.69
2023-04-10T05:11:26.345Z,144.19
2023-04-10T05:12:26.322Z,147.65
2023-04-10T05:13:26.343Z,150.18
2023-04-10T05:14:26.332Z,151.55
2023-04-10T05:15:26.500Z,156.10
2023-04-10T05:16:26.255Z,157.43
2023-04-10T05:17:26.305Z,161.41
2023-04-10T05:18:26.305Z,161.72
2023-04-10T05:19:26.217Z,161.72
2023-04-10T05:20:26.216Z,162.04
2023-04-10T05:21:26.224Z,160.47
2023-04-10T05:22:26.194Z,161.09
2023-04-10T05:23:26.180Z,160.01
2023-04-10T05:24:26.177Z,157.58
2023-04-10T05:25:26.145Z,154.51
2023-04-10T05:26:26.144Z,152.52
2023-04-10T05:27:26.130Z,151.96
2023-04-10T05:28:26.111Z,151.69
2023-04-10T05:29:26.112Z,146.48
2023-04-10T05:30:26.089Z,147.51
2023-04-10T05:31:26.170Z,144.31
2023-04-10T05:32:26.116Z,142.70
2023-04-10T05:33:26.093Z,142.83
2023-04-10T05:34:26.070Z,141.01
2023-04-10T05:35:26.048Z,141.01
2023-04-10T05:36:26.037Z,143.07
2023-04-10T05:37:26.006Z,145.58
2023-04-10T05:38:25.996Z,148.57
2023-04-10T05:39:25.971Z,153.79
2023-04-10T05:40:26.001Z,156.99
2023-04-10T05:41:26.003Z,159.09
2023-04-10T05:42:25.954Z,165.09
2023-04-10T05:43:25.930Z,165.26
2023-04-10T05:44:25.927Z,165.59
2023-04-10T05:45:25.934Z,168.61
2023-04-10T05:46:25.917Z,168.27
2023-04-10T05:47:25.978Z,169.99
2023-04-10T05:48:25.885Z,168.10
2023-04-10T05:49:25.869Z,165.26
2023-04-10T05:50:25.888Z,165.59
2023-04-10T05:51:25.826Z,171.04
2023-04-10T05:52:25.854Z,175.93
2023-04-10T05:53:25.830Z,173.72
2023-04-10T05:54:25.822Z,173.90
2023-04-10T05:55:25.771Z,173.18
2023-04-10T05:56:25.810Z,172.28
2023-04-10T05:57:25.810Z,170.16
2023-04-10T05:58:25.785Z,170.69
2023-04-10T05:59:25.740Z,167.76
2023-04-10T06:00:25.713Z,163.95
2023-04-10T06:01:25.701Z,165.75
2023-04-10T06:02:25.866Z,163.63
2023-04-10T06:03:25.779Z,166.92
2023-04-10T06:04:25.829Z,170.16
2023-04-10T06:05:25.743Z,172.28
2023-04-10T06:06:25.665Z,174.08
2023-04-10T06:07:25.672Z,171.39
2023-04-10T06:08:25.638Z,173.36
2023-04-10T06:09:25.593Z,178.76
2023-04-10T06:10:25.613Z,185.97
2023-04-10T06:11:25.586Z,190.53
2023-04-10T06:12:25.576Z,192.77
2023-04-10T06:13:25.549Z,192.89
2023-04-10T06:14:25.529Z,199.60
2023-04-10T06:15:25.507Z,200.83
2023-04-10T06:16:25.750Z,205.11
2023-04-10T06:17:25.544Z,208.38
2023-04-10T06:18:25.490Z,215.24
2023-04-10T06:19:25.465Z,219.87
2023-04-10T06:20:25.453Z,226.42
2023-04-10T06:21:25.473Z,229.28
2023-04-10T06:22:25.434Z,230.25
2023-04-10T06:23:25.413Z,234.04
2023-04-10T06:24:25.434Z,237.96
2023-04-10T06:25:25.406Z,235.90
2023-04-10T06:26:25.385Z,230.25
2023-04-10T06:27:25.390Z,225.80
2023-04-10T06:28:25.436Z,222.12
2023-04-10T06:29:25.348Z,216.24
2023-04-10T06:30:25.326Z,210.93
2023-04-10T06:31:25.357Z,207.85
2023-04-10T06:32:25.355Z,206.80
2023-04-10T06:33:26.401Z,209.99
2023-04-10T06:34:25.282Z,213.41
2023-04-10T06:35:25.271Z,217.10
2023-04-10T06:36:25.264Z,221.36
2023-04-10T06:37:25.263Z,230.90
2023-04-10T06:38:25.261Z,239.35
2023-04-10T06:39:25.223Z,242.55
2023-04-10T06:40:25.200Z,245.46
2023-04-10T06:41:25.178Z,243.45
2023-04-10T06:42:25.182Z,246.95
2023-04-10T06:43:25.171Z,244.36
2023-04-10T06:44:25.142Z,242.19
2023-04-10T06:45:25.125Z,241.12
2023-04-10T06:46:25.152Z,238.13
2023-04-10T06:47:25.128Z,226.42
2023-04-10T06:48:25.134Z,215.52
2023-04-10T06:49:25.389Z,204.73
2023-04-10T06:50:25.058Z,198.75
2023-04-10T06:51:25.043Z,198.63
2023-04-10T06:52:25.087Z,200.09
2023-04-10T06:53:25.031Z,212.44
2023-04-10T06:54:25.026Z,221.36
2023-04-10T06:55:25.032Z,221.81
2023-04-10T06:56:25.078Z,223.94
2023-04-10T06:57:24.990Z,218.11
2023-04-10T06:58:24.952Z,214.53
2023-04-10T06:59:24.955Z,226.74
2023-04-10T07:00:24.935Z,240.76
2023-04-10T07:01:26.079Z,251.51
2023-04-10T07:02:25.349Z,267.13
2023-04-10T07:03:24.899Z,275.92
2023-04-10T07:04:24.934Z,279.46
2023-04-10T07:05:24.874Z,279.94
2023-04-10T07:06:24.883Z,286.07
2023-04-10T07:07:24.856Z,287.32
2023-04-10T07:08:24.879Z,292.46
2023-04-10T07:09:24.822Z,291.42
2023-04-10T07:10:24.813Z,296.98
2023-04-10T07:11:24.810Z,302.48
2023-04-10T07:12:24.808Z,301.36
2023-04-10T07:13:24.761Z,301.64
2023-04-10T07:14:24.759Z,294.04
2023-04-10T07:15:24.770Z,291.68
2023-04-10T07:16:24.754Z,284.32
2023-04-10T07:17:24.767Z,280.66
2023-04-10T07:18:24.716Z,274.30
2023-04-10T07:19:24.711Z,274.99
2023-04-10T07:20:24.707Z,282.60
2023-04-10T07:21:24.675Z,289.87
2023-04-10T07:22:24.717Z,293.51
2023-04-10T07:23:24.656Z,293.51
2023-04-10T07:24:24.651Z,292.20
2023-04-10T07:25:24.639Z,295.64
2023-04-10T07:26:24.612Z,302.48
2023-04-10T07:27:24.597Z,307.89
2023-04-10T07:28:24.614Z,322.79
2023-04-10T07:29:24.558Z,329.29
2023-04-10T07:30:24.571Z,334.00
2023-04-10T07:31:33.050Z,342.76
2023-04-10T07:32:24.766Z,343.48
2023-04-10T07:33:24.547Z,340.26
2023-04-10T07:34:24.494Z,336.75
2023-04-10T07:35:24.498Z,342.04
2023-04-10T07:36:24.490Z,341.68
2023-04-10T07:37:24.456Z,353.51
2023-04-10T07:38:24.496Z,355.43
2023-04-10T07:39:24.447Z,373.71
2023-04-10T07:40:24.431Z,372.86
2023-04-10T07:41:24.452Z,364.14
2023-04-10T07:42:24.409Z,362.52
2023-04-10T07:43:24.387Z,356.59
2023-04-10T07:44:24.399Z,351.60
2023-04-10T07:45:24.453Z,346.39
2023-04-10T07:46:24.390Z,347.12
2023-04-10T07:47:24.503Z,341.68
2023-04-10T07:48:24.336Z,343.48
2023-04-10T07:49:24.341Z,337.80
2023-04-10T07:50:24.323Z,334.34
2023-04-10T07:51:24.295Z,326.33
2023-04-10T07:52:24.269Z,323.11
2023-04-10T07:53:24.272Z,306.16
2023-04-10T07:54:24.293Z,303.04
2023-04-10T07:55:24.284Z,288.85
2023-04-10T07:56:24.235Z,306.16
2023-04-10T07:57:24.215Z,319.94
2023-04-10T07:58:24.200Z,326.98
2023-04-10T07:59:24.227Z,340.61
2023-04-10T08:00:24.207Z,339.55
2023-04-10T08:01:24.150Z,344.56
2023-04-10T08:02:24.327Z,362.12
2023-04-10T08:03:24.281Z,375.43
2023-04-10T08:04:24.321Z,384.90
2023-04-10T08:05:24.246Z,395.67
2023-04-10T08:06:24.088Z,408.82
2023-04-10T08:07:24.096Z,415.73
2023-04-10T08:08:24.065Z,425.04
2023-04-10T08:09:24.060Z,444.97
2023-04-10T08:10:24.065Z,456.27
2023-04-10T08:11:24.043Z,457.85
2023-04-10T08:12:24.019Z,458.16
2023-04-10T08:13:24.006Z,450.09
2023-04-10T08:14:24.010Z,458.16
2023-04-10T08:15:24.020Z,460.39
2023-04-10T08:16:24.043Z,468.50
2023-04-10T08:17:24.006Z,474.19
2023-04-10T08:18:23.928Z,475.20
2023-04-10T08:19:23.937Z,474.19
2023-04-10T08:20:23.946Z,474.19
2023-04-10T08:21:23.897Z,452.24
2023-04-10T08:22:23.882Z,446.76
2023-04-10T08:23:23.875Z,467.18
2023-04-10T08:24:23.853Z,481.75
2023-04-10T08:25:23.874Z,489.56
2023-04-10T08:26:23.844Z,483.15
2023-04-10T08:27:23.846Z,473.85
2023-04-10T08:28:23.830Z,486.69
2023-04-10T08:30:23.929Z,493.93
2023-04-10T08:31:23.938Z,492.10
2023-04-10T08:32:23.782Z,505.20
2023-04-10T08:33:23.753Z,531.47
2023-04-10T08:34:23.732Z,538.36
2023-04-10T08:35:23.725Z,534.03
2023-04-10T08:36:23.735Z,534.46
2023-04-10T08:37:23.713Z,526.00
2023-04-10T08:38:23.689Z,544.09
2023-04-10T08:39:23.695Z,556.39
2023-04-10T08:40:23.700Z,551.32
2023-04-10T08:41:23.674Z,560.62
2023-04-10T08:42:23.640Z,563.95
2023-04-10T08:43:23.642Z,572.70
2023-04-10T08:44:23.604Z,567.32
2023-04-10T08:45:23.611Z,564.43
2023-04-10T08:46:23.602Z,568.78
2023-04-10T08:47:23.622Z,564.91
2023-04-10T08:48:23.590Z,539.67
2023-04-10T08:49:23.546Z,512.60
2023-04-10T08:50:23.553Z,504.43
2023-04-10T08:51:26.223Z,493.93
2023-04-10T08:52:23.507Z,511.81
2023-04-10T08:53:23.503Z,516.99
2023-04-10T08:54:23.517Z,482.10
2023-04-10T08:55:23.479Z,454.71
2023-04-10T08:56:23.473Z,489.92
2023-04-10T08:57:23.445Z,499.88
2023-04-10T08:58:23.526Z,515.39
2023-04-10T08:59:23.429Z,534.03
2023-04-10T09:00:23.846Z,549.49
2023-04-10T09:01:23.471Z,562.04
2023-04-10T09:02:23.505Z,552.69
2023-04-10T09:03:23.526Z,559.68
2023-04-10T09:04:23.470Z,577.68
2023-04-10T09:05:23.351Z,577.68
2023-04-10T09:06:23.356Z,562.52
2023-04-10T09:07:23.322Z,541.43
2023-04-10T09:08:23.467Z,554.54
2023-04-10T09:09:23.311Z,563.00
2023-04-10T09:10:23.323Z,578.69
2023-04-10T09:11:23.311Z,578.69
2023-04-10T09:12:23.271Z,566.84
2023-04-10T09:13:23.259Z,567.81
2023-04-10T09:14:23.242Z,582.75
2023-04-10T09:15:23.257Z,594.75
2023-04-10T09:16:23.286Z,592.10
2023-04-10T09:17:23.303Z,583.77
2023-04-10T09:18:23.253Z,569.76
2023-04-10T09:19:23.266Z,549.49
2023-04-10T09:20:23.240Z,561.57
2023-04-10T09:21:23.207Z,573.69
2023-04-10T09:22:23.378Z,548.58
2023-04-10T09:23:23.146Z,544.54
2023-04-10T09:24:23.135Z,577.68
2023-04-10T09:25:23.118Z,599.58
2023-04-10T09:26:23.098Z,603.39
2023-04-10T09:27:23.103Z,620.87
2023-04-10T09:28:23.064Z,640.63
2023-04-10T09:29:23.067Z,654.52
2023-04-10T09:30:23.066Z,668.34
2023-04-10T09:31:23.220Z,676.51
2023-04-10T09:32:23.063Z,680.67
2023-04-10T09:33:22.995Z,684.88
2023-04-10T09:34:23.005Z,700.04
2023-04-10T09:35:22.966Z,692.74
2023-04-10T09:36:22.993Z,707.49
2023-04-10T09:37:22.987Z,726.84
2023-04-10T09:38:22.966Z,708.25
2023-04-10T09:39:22.949Z,710.52
2023-04-10T09:40:22.920Z,727.64
2023-04-10T09:41:22.918Z,695.64
2023-04-10T09:42:22.904Z,648.77
2023-04-10T09:43:22.905Z,630.90
2023-04-10T09:44:22.856Z,650.03
2023-04-10T09:45:22.958Z,670.37
2023-04-10T09:46:22.863Z,661.69
2023-04-10T09:47:22.878Z,663.67
2023-04-10T09:48:22.823Z,663.01
2023-04-10T09:49:22.789Z,667.00
2023-04-10T09:50:22.794Z,656.46
2023-04-10T09:51:22.786Z,628.51
2023-04-10T09:52:22.789Z,597.96
2023-04-10T09:53:22.732Z,621.46
2023-04-10T09:54:22.726Z,635.12
2023-04-10T09:55:22.715Z,626.73
2023-04-10T09:56:22.734Z,651.95
2023-04-10T09:57:22.704Z,667.67
2023-04-10T09:58:22.702Z,657.11
2023-04-10T09:59:22.679Z,687.01
2023-04-10T10:00:22.673Z,712.04
2023-04-10T10:01:22.784Z,703.00
2023-04-10T10:02:22.763Z,723.68
2023-04-10T10:03:22.790Z,712.81
2023-04-10T10:04:22.640Z,721.32
2023-04-10T10:05:22.615Z,726.05
2023-04-10T10:06:22.571Z,714.34
2023-04-10T10:07:22.610Z,725.26
2023-04-10T10:08:22.588Z,717.42
2023-04-10T10:09:22.630Z,744.77
2023-04-10T10:10:22.529Z,757.40
2023-04-10T10:11:22.530Z,777.78
2023-04-10T10:12:22.511Z,770.57
2023-04-10T10:13:22.539Z,773.71
2023-04-10T10:14:22.488Z,784.20
2023-04-10T10:15:22.511Z,784.66
2023-04-10T10:16:23.094Z,785.59
2023-04-10T10:17:22.492Z,781.89
2023-04-10T10:18:22.433Z,765.25
2023-04-10T10:19:22.417Z,760.43
2023-04-10T10:20:22.420Z,698.57
2023-04-10T10:21:22.377Z,648.77
2023-04-10T10:22:22.371Z,636.95
2023-04-10T10:23:22.388Z,700.78
2023-04-10T10:24:22.364Z,745.93
2023-04-10T10:25:22.361Z,760.00
2023-04-10T10:26:22.334Z,753.97
2023-04-10T10:27:22.310Z,762.18
2023-04-10T10:28:22.329Z,794.98
2023-04-10T10:29:22.309Z,834.38
2023-04-10T10:30:30.239Z,822.00
2023-04-10T10:31:22.473Z,833.33
2023-04-10T10:32:22.286Z,835.95
2023-04-10T10:33:22.273Z,838.59
2023-04-10T10:34:22.251Z,831.77
2023-04-10T10:35:23.020Z,761.30
2023-04-10T10:36:22.265Z,752.26
2023-04-10T10:37:22.197Z,762.18
2023-04-10T10:38:22.201Z,793.08
2023-04-10T10:39:22.182Z,820.99
2023-04-10T10:40:22.189Z,841.24
2023-04-10T10:41:22.211Z,810.97
2023-04-10T10:42:22.149Z,811.47
2023-04-10T10:43:22.123Z,808.51
2023-04-10T10:44:22.121Z,812.46
2023-04-10T10:45:22.132Z,829.18
2023-04-10T10:46:22.198Z,850.93
2023-04-10T10:47:22.134Z,881.96
2023-04-10T10:48:22.062Z,893.22
2023-04-10T10:49:22.092Z,882.55
2023-04-10T10:50:23.465Z,885.49
2023-04-10T10:51:22.056Z,849.84
2023-04-10T10:52:22.018Z,863.64
2023-04-10T10:53:22.017Z,881.96
2023-04-10T10:54:21.999Z,899.26
2023-04-10T10:55:22.038Z,860.28
2023-04-10T10:56:22.062Z,820.48
2023-04-10T10:57:21.963Z,853.11
2023-04-10T10:58:21.944Z,820.48
2023-04-10T10:59:21.958Z,839.65
2023-04-10T11:00:21.937Z,801.69
2023-04-10T11:01:21.956Z,769.67
2023-04-10T11:02:21.979Z,792.61
2023-04-10T11:03:22.137Z,802.66
2023-04-10T11:04:21.874Z,837.00
2023-04-10T11:05:21.864Z,841.24
2023-04-10T11:06:22.110Z,866.45
2023-04-10T11:07:21.832Z,878.47
2023-04-10T11:08:21.881Z,861.40
2023-04-10T11:09:21.829Z,895.02
2023-04-10T11:10:21.815Z,912.83
2023-04-10T11:11:21.828Z,917.87
2023-04-10T11:12:21.786Z,953.40
2023-04-10T11:13:21.774Z,969.39
2023-04-10T11:14:21.742Z,944.60
2023-04-10T11:15:21.766Z,952.04
2023-04-10T11:16:21.826Z,977.22
2023-04-10T11:17:21.745Z,1006.81
2023-04-10T11:18:21.717Z,971.51
2023-04-10T11:19:23.327Z,891.42
2023-04-10T11:20:21.716Z,900.47
2023-04-10T11:21:21.697Z,991.80
2023-04-10T11:22:21.709Z,1109.26
2023-04-10T11:23:21.669Z,1167.69
2023-04-10T11:24:21.675Z,1261.86
2023-04-10T11:25:21.681Z,1273.95
2023-04-10T11:26:21.688Z,1305.20
2023-04-10T11:27:21.621Z,1323.38
2023-04-10T11:28:21.589Z,1362.70
2023-04-10T11:29:21.591Z,1453.55
2023-04-10T11:30:21.654Z,1471.24
2023-04-10T11:31:21.617Z,1482.72
2023-04-10T11:32:21.582Z,1474.50
2023-04-10T11:33:21.519Z,1472.87
2023-04-10T11:34:21.517Z,1491.03
2023-04-10T11:35:21.577Z,1477.78
2023-04-10T11:36:21.502Z,1417.91
2023-04-10T11:37:21.520Z,1332.67
2023-04-10T11:38:21.501Z,1307.77
2023-04-10T11:39:21.463Z,1272.73
2023-04-10T11:40:21.453Z,1269.08
2023-04-10T11:41:21.422Z,1259.47
2023-04-10T11:42:21.469Z,1244.15
2023-04-10T11:43:21.393Z,1258.28
2023-04-10T11:44:21.384Z,1236.06
2023-04-10T11:45:21.422Z,1241.83
2023-04-10T11:46:21.423Z,1270.30
2023-04-10T11:47:21.402Z,1326.02
2023-04-10T11:48:21.333Z,1287.51
2023-04-10T11:49:21.347Z,1217.95
2023-04-10T11:50:21.352Z,1165.64
2023-04-10T11:51:21.921Z,1167.69
2023-04-10T11:52:21.306Z,1108.33
2023-04-10T11:53:21.280Z,1048.90
2023-04-10T11:54:21.312Z,1041.50
2023-04-10T11:55:21.313Z,1070.85
2023-04-10T11:56:21.317Z,1015.27
2023-04-10T11:57:21.228Z,1068.27
2023-04-10T11:58:21.253Z,1111.11
2023-04-10T11:59:21.212Z,1156.52
2023-04-10T12:00:21.220Z,1161.57
2023-04-10T12:01:27.771Z,1214.61
2023-04-10T12:02:21.412Z,1211.29
2023-04-10T12:03:22.245Z,1212.40
2023-04-10T12:04:21.358Z,1185.38
2023-04-10T12:05:21.138Z,1107.41
2023-04-10T12:06:21.140Z,1185.38
2023-04-10T12:07:21.100Z,1206.90
2023-04-10T12:08:21.129Z,1209.09
2023-04-10T12:09:21.120Z,1175.95
2023-04-10T12:10:21.087Z,1149.52
2023-04-10T12:11:21.055Z,1165.64
2023-04-10T12:12:21.029Z,1192.82
2023-04-10T12:13:21.050Z,1209.09
2023-04-10T12:14:21.030Z,1223.55
2023-04-10T12:15:21.186Z,1236.06
2023-04-10T12:16:21.039Z,1251.18
2023-04-10T12:17:21.013Z,1260.66
2023-04-10T12:18:20.979Z,1285.02
2023-04-10T12:19:20.956Z,1292.52
2023-04-10T12:20:20.919Z,1248.83
2023-04-10T12:22:42.094Z,427.50
2023-04-10T12:23:43.046Z,692.02
2023-04-10T12:24:43.009Z,872.13
2023-04-10T12:25:57.115Z,973.65
2023-04-10T12:26:43.154Z,1073.45
2023-04-10T12:27:43.004Z,1153.51
2023-04-10T12:28:43.024Z,1224.68
2023-04-10T12:29:42.809Z,1134.81